首页
METAR-TAF:

METAR-TAF

机场 :

默特尔比奇, 南卡罗来纳州, 美国

纬度: 33-41N, 经度: 078-56W, 海拔: 8米

当前天气观测

该预报发布于1小时和0分钟前的01:56 UTC
风速13节,风向北转西北
温度 22°C
湿度 53%
气压 1013 hPa
能見度: 16.1公里
天空无云

METAR: KMYR 170156Z 34013KT 10SM CLR 22/12 A2991 RMK AO2 SLP127 T02170122

时间: 22:56 (02:56 UTC)

预报

该预报发布于3小时和36分钟前的23:20 UTC
预报有效从17日的 00点(UTC)到 17日的 24点(UTC)
风速9节,风向西南
能見度: 10公里
散云层高于5000英尺
多云层高于12000英尺
从 17日的 0045点(UTC)
风速15节,风向,有时为27节阵风
能見度: 10公里
散云层高于5000英尺
多云层高于12000英尺
从 17日的 0200点(UTC)
风速12节,风向,有时为20节阵风
能見度: 10公里
少量云层高于5000英尺
从 17日的 0500点(UTC)
风速11节,风向
能見度: 10公里
天空无云
从 17日的 1300点(UTC)
风速14节,风向北转西北
能見度: 10公里
天空无云

TAF: KMYR 162320Z 1700/1724 23009KT P6SM SCT050 BKN120 FM170045 35015G27KT P6SM SCT050 BKN120 FM170200 35012G20KT P6SM FEW050 FM170500 35011KT P6SM SKC FM171300 34014KT P6SM SKC

超过4000个机场的气象观测和天气预报(METAR&TAF报告)。

可查询的气象台以黄色和红色小点在地图上表示。

将鼠标移到小点上方,可查看气象台名称。

然后点击查看天气观测和预报。

如需切换地图:点击带黑十字的绿色按钮放大地图;点击带横线的绿色按钮缩小地图;或者点击绿色箭头查看邻近地区的地图。


METAR-TAF: